Tiempo atmosférico en la estación meteorológica de Málaga, Centro Meteorológico, Málaga (60 m.)



Fecha
DESCASC
Temp. máxima en grados centígrados (hora)
DESCASC
Temp. mínima en grados centígrados (hora)
DESCASC
Temp. media en grados centígrados
DESCASC
Racha de viento máxima en m/sg (hora)
DESCASC
Velocidad máxima media en intervalos de 10 minutos(hora)
DESCASC
Precipitaciones diarias en mm
DESCASC
Precipitaciones de 00:00 a 06:00 en mm
DESCASC
Precipitaciones de 06:00 a 12:00 en mm
DESCASC
Precipitaciones de 12:00 a 18:00 en mm
DESCASC
Precipitaciones de 18:00 a 24:00 en mm
DESCASC
29-03-2020 20.2 (14:00) 10.8 (07:40) 15.5 7.22 (16:40) 4.44 (16:40) 0 0 0 0 0
28-03-2020 16.5 (16:50) 12.6 (09:40) 14.6 8.61 (12:50) 5.28 (13:40) 1.6 0.7 0.9 0 0
27-03-2020 16.2 (14:30) 13.4 (07:20) 14.8 9.17 (14:40) 5.83 (14:40) 0.4 0 0.3 0.1 0
26-03-2020 23.5 (15:00) 9.3 (00:00) 16.4 9.44 (18:20) 5 (18:30) -- -- 0 0 0
25-03-2020 14.5 (18:50) 11.8 (00:00) 13.2 5.83 (12:30) 3.61 (12:40) -- -- -- -- --
24-03-2020 18.6 (16:30) 11.4 (00:00) 15 7.5 (07:00) 4.72 (07:00) -- -- -- -- --
23-03-2020 13.8 (12:40) 9.2 (00:00) 11.5 6.39 (23:30) 3.61 (21:30) -- -- -- -- --
22-03-2020 17.2 (14:20) 10.6 (06:20) 13.9 6.39 (14:30) 3.89 (14:40) -- -- -- -- --
21-03-2020 18.5 (14:40) 10.7 (00:00) 14.6 11.94 (02:40) 6.67 (02:20) -- -- -- -- --
20-03-2020 20.4 (17:30) 14 (00:00) 17.2 10 (23:20) 6.11 (23:20) -- -- -- -- --
19-03-2020 19.3 (15:10) 15.1 (00:00) 17.2 9.72 (16:30) 5.83 (16:10) 0 0 0 0 0
18-03-2020 19.6 (13:10) 13.7 (00:00) 16.7 11.39 (11:40) 6.67 (13:40) 0 0 0 0 0
17-03-2020 18 (14:40) 10 (00:00) 14 12.22 (13:30) 7.5 (14:50) 0 0 0 0 0
16-03-2020 18.4 (15:40) 12.1 (00:00) 15.3 11.11 (17:10) 5.83 (09:00) 0 0 0 0 0
15-03-2020 17.4 (15:30) 13.3 (00:00) 15.3 6.11 (13:30) 4.17 (13:30) 0 0 0 0 0
14-03-2020 21.5 (14:10) 14.5 (00:00) 18 6.67 (14:30) 4.17 (14:20) 0 0 0 0 0
13-03-2020 24.5 (12:00) 15 (00:30) 19.8 7.5 (14:20) 4.44 (15:20) 0 0 0 0 0
12-03-2020 27.8 (13:40) 12.6 (00:00) 20.2 5.56 (14:00) 3.33 (09:30) 0 0 0 0 0
11-03-2020 24.1 (16:20) 10.9 (00:00) 17.5 4.44 (14:50) 3.06 (06:30) 0 0 0 0 0
10-03-2020 23.5 (11:50) 13.7 (00:00) 18.6 10.56 (14:20) 5.83 (14:20) 0 0 0 0 0
09-03-2020 26.9 (15:00) 14.8 (00:00) 20.8 10.28 (14:40) 6.67 (14:20) 0 0 0 0 0
08-03-2020 23.3 (14:00) 7.5 (00:00) 15.4 5.83 (18:10) 3.89 (18:10) 0 0 0 0 0
07-03-2020 22.2 (13:30) 11.1 (00:00) 16.7 8.61 (05:00) 4.72 (13:50) 0 0 0 0 0
06-03-2020 19.9 (16:20) 11.5 (00:00) 15.7 13.89 (19:40) 6.67 (12:40) 0 0 0 0 0
05-03-2020 23.2 (13:50) 13.8 (00:00) 18.5 12.78 (15:10) 7.78 (14:40) 0 0 0 0 0
04-03-2020 23.7 (17:10) 15 (00:00) 19.4 11.39 (16:40) 6.39 (14:30) 0 0 0 0 0
03-03-2020 21.7 (14:50) 13.2 (00:00) 17.5 13.89 (16:40) 8.61 (16:50) 0 0 0 0 0
02-03-2020 25.6 (15:50) 14.6 (00:00) 20.1 14.17 (15:50) 8.61 (16:40) 0 0 0 0 0
01-03-2020 23.2 (17:00) 14.8 (00:00) 19 10.28 (11:40) 4.17 (14:00) 0 0 0 0 0
29-02-2020 24.3 (15:20) 8.7 (00:00) 16.5 10.83 (20:10) 4.17 (19:40) 0 0 0 0 0

Gráficas

Temp. máximas Temp. mínimas Temp. medias Precipitaciones Rachas de viento máximas Velocidades máximas media en intervalos de 10 minutos

Datos horarios

Fecha y hora oficial Temperatura (ºC) Velocidad del viento (km/h) Dirección del viento Racha (km/h) Dirección de racha Precipitación (mm) Presión (hPa) Tendencia (hPa) Humedad (%)
2020-03-29 23:00:00 14.3 5 Sudeste 12 Sudeste 0 1012.1 0.4 82
2020-03-29 22:00:00 14.7 8 Sudeste 15 Sudeste 0 1011.7 0.1 79
2020-03-29 21:00:00 15.1 8 Sudeste 14 Sudeste 0 1011.8 0.1 75
2020-03-29 20:00:00 15.8 10 Sudeste 19 Este 0 1011.7 -0.3 70
2020-03-29 19:00:00 16.6 13 Sudeste 22 Sudeste 0 1011.6 -0.8 67
2020-03-29 18:00:00 16.9 14 Sudeste 26 Sudeste 0 1011.7 -1.2 62
2020-03-29 17:00:00 18 15 Sudeste 26 Sudeste 0 1012 -1.4 56
2020-03-29 16:00:00 18.4 15 Sudeste 22 Este 0 1012.4 -1.4 55
2020-03-29 15:00:00 19.5 12 Sudeste 21 Sudeste 0 1012.9 -1.3 50
2020-03-29 14:00:00 19.7 11 Sur 19 Sur 0 1013.4 -1.1 44
2020-03-29 13:00:00 19.1 5 Sudoeste 12 Oeste 0 1013.8 -0.8 46
2020-03-29 12:00:00 17.4 9 Oeste 16 Oeste 0 1014.2 -0.1 68
2020-03-29 11:00:00 15 9 Oeste 13 Oeste 0 1014.5 0.4 77
2020-03-29 10:00:00 12.2 5 Noroeste 10 Noroeste 0 1014.6 0.5 94
2020-03-29 09:00:00 11.1 4 Noroeste 10 Noroeste 0 1014.3 -0.1 94
2020-03-29 08:00:00 10.9 5 Oeste 11 Oeste 0 1014.1 -0.6 94
2020-03-29 07:00:00 11.1 5 Oeste 11 Oeste 0 1014.1 -1.2 92
2020-03-29 06:00:00 11.9 4 Oeste 9 Sudoeste 0 1014.4 -1.2 91
2020-03-29 05:00:00 13.1 0 Calma 5 Oeste 0 1014.7 -1.1 91
2020-03-29 03:00:00 13.6 0 Calma 7 Sudoeste 0 1015.6 0.3 85
2020-03-29 01:00:00 13.6 0 Calma 7 Sudeste 0 1015.8 1 82
2020-03-29 00:00:00 14.2 4 Sudeste 10 Este 0 1015.7 1.6 79
2020-03-28 23:00:00 13.9 6 Este 13 Este 0 1015.3 1.9 77
2020-03-28 22:00:00 14.1 6 Este 13 Sudeste 0 1014.8 1.9 74
2020-03-28 21:00:00 14.2 8 Sudeste 15 Sudeste 0 1014.1 1.6 73
2020-03-28 20:00:00 14.3 7 Sudeste 19 Sudeste 0 1013.4 1.1 71
2020-03-28 19:00:00 14.8 11 Sudeste 20 Sudeste 0 1012.9 0.4 70
2020-03-28 18:00:00 15.1 11 Sudeste 25 Sudeste 0 1012.5 -0.3 67
2020-03-28 17:00:00 16.1 15 Sudeste 27 Sudeste 0 1012.3 -0.5 62
2020-03-28 16:00:00 15.7 18 Sudeste 27 Sudeste 0 1012.5 -0.2 65
2020-03-28 15:00:00 14.9 18 Sudeste 26 Sudeste 0 1012.8 0.3 68
2020-03-28 14:00:00 14.5 19 Sudeste 31 Sudeste 0 1012.8 0.7 70
2020-03-28 13:00:00 14.1 15 Sudeste 31 Este 0 1012.7 1.4 80
2020-03-28 12:00:00 13.1 13 Este 23 Este 0.2 1012.5 2 95
2020-03-28 11:00:00 13.1 13 Este 23 Este 0.2 1012.1 2.2 94
2020-03-28 10:00:00 12.8 9 Este 18 Este 0.1 1011.3 2.1 95
2020-03-28 09:00:00 12.8 13 Este 23 Este 0.4 1010.5 2 94
2020-03-28 08:00:00 12.9 13 Este 26 Este 0 1009.9 1.5 91
2020-03-28 07:00:00 12.9 14 Este 23 Sudeste 0 1009.2 0.9 91
2020-03-28 06:00:00 13.1 12 Este 22 Este 0 1008.5 0 91
2020-03-28 05:00:00 13.5 14 Sudeste 26 Este 0 1008.4 -0.3 91
2020-03-28 04:00:00 13.2 6 Este 12 Este 0 1008.3 -0.4 91
2020-03-28 03:00:00 13.4 5 Nordeste 12 Nordeste 0.7 1008.5 -0.1 88
2020-03-28 02:00:00 13.7 8 Este 15 Este 0 1008.7 0.4 80
2020-03-28 01:00:00 13.7 9 Este 14 Este 0 1008.7 1.1 80
2020-03-28 00:00:00 13.6 6 Este 14 Este 0 1008.6 1.8 80
2020-03-27 23:00:00 13.9 7 Este 13 Este 0 1008.3 2.2 79
2020-03-27 22:00:00 13.5 5 Este 12 Este 0 1007.6 1.8 79
2020-03-27 21:00:00 13.9 6 Este 18 Este 0 1006.8 1.3 77
2020-03-27 20:00:00 14.2 10 Este 21 Sudeste 0 1006.1 0.8 73
2020-03-27 19:00:00 14.9 12 Este 27 Este 0 1005.8 0.2 71
2020-03-27 18:00:00 15.1 15 Este 28 Este 0 1005.5 -0.2 70
2020-03-27 17:00:00 14.8 19 Este 31 Este 0.1 1005.3 -1 73
2020-03-27 16:00:00 14.7 16 Este 33 Este 0 1005.6 -1 74
2020-03-27 15:00:00 15.7 19 Este 33 Este 0 1005.7 -0.9 70
2020-03-27 14:00:00 15.4 17 Este 32 Este 0 1006.3 0.1 77
2020-03-27 13:00:00 14.2 18 Este 28 Este 0 1006.6 0.9 77
2020-03-27 12:00:00 14.2 19 Este 33 Este 0 1006.6 1.4 76
2020-03-27 11:00:00 14.4 12 Este 28 Sudeste 0 1006.2 1.2 77
2020-03-27 10:00:00 14.2 12 Este 32 Este 0 1005.7 1.1 76
2020-03-27 09:00:00 14.1 17 Este 32 Sudeste 0 1005.2 0.8 77
2020-03-27 08:00:00 13.9 14 Este 29 Sudeste 0.1 1005 0.8 86
2020-03-27 07:00:00 13.7 8 Este 31 Este 0.2 1004.6 0.6 88
2020-03-27 06:00:00 14.2 18 Este 31 Este 0 1004.4 0.1 83
2020-03-27 05:00:00 14.3 15 Este 26 Sudeste 0 1004.2 -0.2 80
2020-03-27 04:00:00 13.9 3 Norte 9 Noroeste 0 1004 -0.4 67
2020-03-27 03:00:00 14.3 4 Oeste 11 Noroeste 0 1004.3 -0.3 67
2020-03-27 02:00:00 14.3 4 Noroeste 9 Noroeste 0 1004.4 -0.1 67
2020-03-27 01:00:00 14.3 4 Oeste 11 Oeste 0 1004.4 0.2 65
2020-03-27 00:00:00 15.2 4 Norte 7 Noroeste 0 1004.6 1.2 61
2020-03-26 23:00:00 16 0 Calma 11 Oeste 0 1004.5 1.7 53
2020-03-26 22:00:00 17 0 Calma 13 Noroeste 0 1004.2 1.9 49
2020-03-26 21:00:00 18.2 7 Noroeste 22 Noroeste 0 1003.4 1.3 42
2020-03-26 20:00:00 19.7 12 Oeste 30 Oeste 0 1002.8 0.6 38
2020-03-26 19:00:00 21.3 17 Oeste 34 Noroeste 0 1002.3 -0.3 35
2020-03-26 18:00:00 22.4 11 Noroeste 30 Oeste 0 1002.1 -1.1 35
2020-03-26 17:00:00 22.8 12 Noroeste 28 Oeste 0 1002.2 -2 33
2020-03-26 16:00:00 22.9 10 Noroeste 26 Oeste 0 1002.6 -2.4 35
2020-03-26 15:00:00 22.9 12 Noroeste 30 Noroeste 0 1003.2 -2.7 37
2020-03-26 14:00:00 22 12 Noroeste 27 Noroeste 0 1004.2 -2.5 43
2020-03-26 13:00:00 21.2 6 Noroeste 26 Norte 0 1005 -1.9 50
2020-03-26 12:00:00 18.9 5 Noroeste 18 Oeste 0 1005.9 -1.7 59
2020-03-26 11:00:00 17.3 8 Oeste 16 Oeste 0 1006.7 -0.7 70
2020-03-26 10:00:00 13.6 8 Oeste 15 Oeste 0 1006.9 -0.9 89
2020-03-26 09:00:00 10.6 9 Oeste 12 Oeste 0 1007.6 -0.6 94
2020-03-26 08:00:00 9.8 5 Noroeste 9 Norte 0 1007.4 -1.6 95
2020-03-26 07:00:00 9.7 5 Noroeste 13 Noroeste 0 1007.8 -1.8 95
2020-03-26 06:00:00 9.3 8 Oeste 10 Oeste 0 1008.2 -2.1 94
2020-03-26 05:00:00 9.9 5 Oeste 9 Noroeste 0 1009 -1.9 94
2020-03-26 04:00:00 10.1 4 Noroeste 8 Noroeste 0 1009.6 -1.7 94
2020-03-26 03:00:00 10.3 5 Noroeste 8 Oeste 0 1010.3 -1.5 92
2020-03-26 02:00:00 10.5 3 Oeste 6 Norte 0 1010.9 -1.2 89
2020-03-26 01:00:00 11.5 2 Noroeste 6 Oeste 0 1011.3 -0.9 88
2020-03-26 00:00:00 12.4 0 Calma 5 Nordeste 0 1011.8 -0.2 82
2020-03-25 23:00:00 12.9 3 Nordeste 5 Este 0 1012.1 0.5 82
2020-03-25 22:00:00 13.1 0 Calma 7 Sur 0 1012.2 0.8 79
2020-03-25 21:00:00 13.1 4 Sur 10 Sudeste 0 1012 0.2 77
2020-03-25 20:00:00 13.4 5 Sudeste 12 Sudeste 0 1011.6 -0.4 74
2020-03-25 19:00:00 14.2 3 Sudeste 8 Sudeste 0 1011.4 -1 73
2020-03-25 18:00:00 13.9 5 Sudeste 9 Nordeste 0 1011.8 -1.1 77
2020-03-25 17:00:00 13.1 4 Nordeste 10 Nordeste -- 1012 -1.4 86
2020-03-25 16:00:00 13.5 7 Nordeste 11 Nordeste -- 1012.4 -1.3 76
2020-03-25 15:00:00 12.8 7 Este 12 Sudeste -- 1012.9 -0.5 89
2020-03-25 14:00:00 12.5 7 Este 21 Este -- 1013.4 0.5 94
2020-03-25 13:00:00 11.9 10 Este 21 Este 0 1013.7 1.6 94
2020-03-25 12:00:00 12.9 8 Sur 14 Sur 0 1013.4 1.7 94
2020-03-25 11:00:00 12.2 9 Sur 16 Sur 0 1012.9 2.1 95
2020-03-25 10:00:00 12.6 4 Norte 10 Oeste 0 1012.1 2 95
2020-03-25 09:00:00 12.3 6 Oeste 10 Noroeste 0 1011.7 2.3 95
2020-03-25 08:00:00 12.6 0 Calma 14 Sur 0 1010.8 1.9 95
2020-03-25 07:00:00 12.6 10 Sudoeste 20 Sur 0 1010.1 1.1 95
2020-03-25 06:00:00 13.5 0 Calma 5 Noroeste 0 1009.4 0.3 95
2020-03-25 05:00:00 13.8 0 Calma 7 Oeste 0 1008.9 0 95
2020-03-25 04:00:00 13.8 5 Sudoeste 9 Sudoeste 0 1009 0.3 95
2020-03-25 03:00:00 13.8 4 Noroeste 10 Oeste 0 1009.1 0.5 95
2020-03-25 02:00:00 13.9 3 Oeste 6 Oeste 0 1008.9 0.7 94
2020-03-25 01:00:00 14.1 3 Noroeste 6 Noroeste 0 1008.7 1.2 94
2020-03-25 00:00:00 14 5 Norte 10 Noroeste 0 1008.6 1.8 94
2020-03-24 23:00:00 14.1 4 Norte 8 Norte 0 1008.2 2.7 94
2020-03-24 22:00:00 14.4 0 Calma 6 Nordeste 0 1007.5 3.4 92
2020-03-24 21:00:00 14.3 3 Oeste 14 Sudoeste 0 1006.8 3.2 89
2020-03-24 20:00:00 15.9 12 Sur 18 Sur 0 1005.5 2.2 80
2020-03-24 19:00:00 17.3 2 Norte 10 Norte 0 1004.1 0.7 68
2020-03-24 18:00:00 18 5 Noroeste 13 Noroeste 0 1003.6 0.2 67
2020-03-24 17:00:00 18.4 6 Noroeste 13 Noroeste 0 1003.3 -0.7 65
2020-03-24 16:00:00 18.4 4 Oeste 13 Oeste 0 1003.4 -0.7 67
2020-03-24 15:00:00 17.3 9 Noroeste 14 Oeste 0 1003.4 -0.4 71
2020-03-24 14:00:00 16.1 7 Oeste 18 Oeste 0 1004 0.4 79
2020-03-24 13:00:00 15.4 12 Oeste 22 Oeste 0 1004.1 0.6 77
2020-03-24 12:00:00 14.1 13 Oeste 22 Oeste 0 1003.8 0.3 92
2020-03-24 11:00:00 12.7 10 Oeste 20 Noroeste 0 1003.6 0.4 94
2020-03-24 10:00:00 12 10 Oeste 18 Noroeste 0 1003.5 0.9 94
2020-03-24 09:00:00 11.6 11 Noroeste 23 Oeste 0 1003.5 1.1 94
2020-03-24 08:00:00 11.7 16 Oeste 26 Oeste 0 1003.2 0 94
2020-03-24 07:00:00 11.6 17 Oeste 27 Oeste 0 1002.6 -0.9 94
2020-03-24 06:00:00 11.7 13 Noroeste 21 Noroeste 0 1002.4 -1.7 91
2020-03-24 05:00:00 12 14 Oeste 22 Oeste 0 1003.2 -1.8 88
2020-03-24 04:00:00 12.1 13 Oeste 20 Oeste 0 1003.5 -2.3 88
2020-03-24 03:00:00 11.9 10 Oeste 22 Oeste 0 1004.1 -1.7 91
2020-03-24 02:00:00 11.8 11 Oeste 20 Noroeste 0 1005 -1 91
2020-03-24 01:00:00 11.7 11 Noroeste 19 Oeste 0 1005.8 -0.5 92
2020-03-24 00:00:00 11.5 9 Noroeste 23 Noroeste 0 1005.8 -0.4 94
2020-03-23 23:00:00 11.4 11 Noroeste 19 Oeste 0 1006 -0.6 95
2020-03-23 22:00:00 11.1 12 Oeste 22 Noroeste 0 1006.3 -0.5 95
2020-03-23 21:00:00 11.1 12 Oeste 21 Noroeste 0 1006.2 -0.6 95
2020-03-23 20:00:00 11.4 9 Oeste 18 Oeste 0 1006.6 -0.4 95
2020-03-23 19:00:00 11.2 8 Oeste 18 Oeste 0 1006.8 -0.6 95
2020-03-23 18:00:00 11.4 5 Noroeste 12 Oeste 0 1006.8 -0.8 95
2020-03-23 17:00:00 11.4 0 Calma 9 Norte 0 1007 -0.7 95
2020-03-23 16:00:00 11.9 3 Sur 11 Norte 0 1007.4 -1.1 94
2020-03-23 15:00:00 12.1 5 Oeste 9 Sudoeste 0 1007.6 -0.9 92
2020-03-23 14:00:00 13 0 Calma 5 Sudeste 0 1007.7 -1.1 89
2020-03-23 13:00:00 13.4 4 Sudeste 13 Sudeste 0 1008.5 -0.2 83
2020-03-23 12:00:00 13.4 10 Sudoeste 14 Oeste 0 1008.5 0 86
2020-03-23 11:00:00 12.4 8 Oeste 12 Oeste 0 1008.8 0.5 91
2020-03-23 10:00:00 11.2 8 Oeste 12 Oeste 0 1008.7 1.1 89
2020-03-23 09:00:00 10 5 Noroeste 11 Norte 0 1008.5 0.8 95
2020-03-23 08:00:00 9.5 3 Oeste 10 Oeste 0 1008.3 0.7 95
2020-03-23 07:00:00 10 0 Calma 10 Oeste 0 1007.6 -0.3 95
2020-03-23 06:00:00 10.1 5 Oeste 9 Oeste 0 1007.7 -0.5 95
2020-03-23 05:00:00 9.7 3 Noroeste 7 Noroeste 0 1007.6 -0.7 95
2020-03-23 04:00:00 9.9 0 Calma 8 Noroeste 0 1007.9 -0.4 95
2020-03-23 03:00:00 10.5 4 Oeste 8 Noroeste 0 1008.2 -0.5 94
2020-03-23 02:00:00 10.9 3 Noroeste 8 Noroeste 0 1008.3 -0.3 94
2020-03-23 01:00:00 11.2 4 Oeste 10 Sudoeste 0 1008.3 0.3 94
2020-03-23 00:00:00 11.8 5 Oeste 14 Oeste 0 1008.7 1 92
2020-03-22 23:00:00 12.7 5 Sudoeste 8 Oeste 0 1008.6 1.2 89
2020-03-22 22:00:00 12.7 0 Calma 9 Nordeste 0 1008 1.6 86
2020-03-22 21:00:00 12.9 4 Nordeste 10 Este 0 1007.7 1.8 86
2020-03-22 20:00:00 13.5 0 Calma 13 Sudeste 0 1007.4 1.7 82
2020-03-22 19:00:00 14.1 8 Sudeste 17 Sudeste 0 1006.4 0.6 77
2020-03-22 18:00:00 14.9 11 Sudeste 19 Sudeste 0 1005.9 -0.3 74
2020-03-22 17:00:00 15.1 9 Sur 21 Sudeste 0 1005.7 -0.5 70
2020-03-22 16:00:00 14.4 12 Sudeste 21 Sudeste 0 1005.8 -0.9 79
2020-03-22 15:00:00 15 13 Sudeste 23 Sudeste 0 1006.2 -0.8 67
2020-03-22 14:00:00 16.6 11 Sudeste 21 Sudeste 0 1006.2 -0.7 62
2020-03-22 13:00:00 15.8 11 Sudeste 18 Sudeste 0 1006.7 0 62
2020-03-22 12:00:00 13.9 3 Sudoeste 11 Sudoeste 0 1007 0.9 77
2020-03-22 11:00:00 12.3 4 Oeste 8 Oeste 0 1006.9 1.2 94
2020-03-22 10:00:00 11.5 5 Oeste 10 Oeste 0 1006.7 1 95
2020-03-22 09:00:00 11.3 4 Oeste 7 Oeste 0 1006.1 0.4 95
2020-03-22 08:00:00 10.9 0 Calma 5 Oeste 0 1005.7 0.1 95
2020-03-22 07:00:00 10.8 2 Sudeste 10 Este 0 1005.7 -0.1 95
2020-03-22 06:00:00 10.9 4 Este 10 Este 0 1005.7 -0.7 95
2020-03-22 05:00:00 11 6 Nordeste 11 Nordeste 0 1005.6 -0.9 94
2020-03-22 04:00:00 11.5 5 Sudeste 14 Sudeste 0 1005.8 -1.3 94
2020-03-22 03:00:00 11.3 8 Sudeste 13 Sudeste 0 1006.4 -1 91
2020-03-22 02:00:00 11.3 9 Sur 22 Sur 0 1006.5 -1 91
2020-03-22 01:00:00 13 7 Sur 13 Sudeste 0 1007.1 -0.6 89
2020-03-22 00:00:00 12.6 5 Este 13 Nordeste 0 1007.4 -0.1 89
2020-03-21 23:00:00 12.6 8 Este 14 Este 0 1007.5 0.3 89
2020-03-21 22:00:00 12.7 6 Este 11 Sudeste 0 1007.7 0.8 88
2020-03-21 21:00:00 12.2 6 Sudeste 10 Sudeste 0 1007.5 0.8 86
2020-03-21 20:00:00 12.6 2 Sur 15 Sur 0 1007.2 0.3 85
2020-03-21 19:00:00 13.6 3 Sudeste 14 Sur 0 1006.9 0.3 74
2020-03-21 18:00:00 13.9 5 Sudoeste 33 Oeste 0 1006.7 -0.4 68
2020-03-21 17:00:00 15.6 22 Oeste 34 Oeste 0 1006.9 -1.1 53
2020-03-21 16:00:00 17.1 10 Sudoeste 26 Sudoeste 0 1006.6 -2.3 53
2020-03-21 15:00:00 17.4 17 Sur 26 Sur 0 1007.1 -2.2 56
2020-03-21 14:00:00 17 8 Sudeste 25 Sur 0 1008 -1.5 68
2020-03-21 13:00:00 16 13 Sur 20 Sur 0 1008.9 -0.6 70
2020-03-21 12:00:00 16 4 Sur 11 Sudeste 0 1009.3 -0.1 74
2020-03-21 11:00:00 15.5 2 Oeste 8 Sudoeste 0 1009.5 0.6 94
2020-03-21 10:00:00 13.3 0 Calma 9 Sudoeste 0 1009.5 0.8 97
2020-03-21 09:00:00 11.5 4 Sudoeste 5 Sudoeste 0 1009.4 0.8 97
2020-03-21 08:00:00 11.2 2 Nordeste 5 Nordeste 0 1008.9 0.8 97
2020-03-21 07:00:00 11 4 Nordeste 6 Nordeste 0 1008.7 0.7 96
2020-03-21 06:00:00 11.3 3 Sudoeste 19 Sur 0 1008.6 0.6 96
2020-03-21 05:00:00 10.9 0 Calma 35 Sudeste 0 1008.1 0 96
2020-03-21 04:00:00 13.5 22 Sudeste 39 Sudeste 0.1 1008 -1 97
2020-03-21 03:00:00 14.2 23 Sudeste 43 Sudeste 0 1008 -1.3 95
2020-03-21 02:00:00 14.9 19 Sudeste 37 Sudeste 0 1008.1 -1.5 92
2020-03-21 01:00:00 14.6 19 Este 41 Este 0 1009 -0.7 92
2020-03-21 00:00:00 15.4 20 Este 36 Este 0 1009.3 -0.4 89
2020-03-20 23:00:00 15.5 15 Este 35 Sudeste 0 1009.6 0.1 88
2020-03-20 22:00:00 15.6 12 Este 34 Sudeste 0 1009.7 0.8 85
2020-03-20 21:00:00 15.6 18 Sudeste 33 Sudeste 0 1009.7 1.6 83
2020-03-20 20:00:00 15.8 13 Sudeste 29 Sudeste 0 1009.5 1.6 80
2020-03-20 19:00:00 16.7 12 Sudeste 29 Sur 0 1008.9 0.5 74
2020-03-20 18:00:00 18.3 15 Sur 22 Sudeste 0 1008.1 -0.9 55
2020-03-20 17:00:00 19.7 4 Sudeste 9 Sur 0 1007.9 -2.2 50
2020-03-20 16:00:00 18.2 5 Sur 17 Sur 0 1008.4 -2.4 59
2020-03-20 15:00:00 19.3 8 Sudeste 19 Sudeste 0 1009 -2.2 53
2020-03-20 14:00:00 18.8 12 Este 32 Sudeste 0 1010.1 -1.3 59
2020-03-20 13:00:00 17.6 15 Sudeste 28 Sudeste 0 1010.8 -0.4 68
2020-03-20 12:00:00 16.9 15 Sudeste 28 Sudeste 0 1011.2 0.6 68
2020-03-20 11:00:00 16.3 17 Sudeste 25 Sudeste 0 1011.4 1.2 70
2020-03-20 10:00:00 16 14 Sudeste 22 Sudeste 0 1011.2 1.3 71
2020-03-20 09:00:00 15.3 12 Sudeste 22 Sudeste 0 1010.6 0.9 74
2020-03-20 08:00:00 15.1 13 Sudeste 22 Sudeste 0 1010.2 0.7 76
2020-03-20 07:00:00 14.4 0 Calma 8 Noroeste 0 1009.9 0 80
2020-03-20 06:00:00 14.2 5 Norte 11 Norte 0 1009.7 -1 79
2020-03-20 05:00:00 14.2 5 Noroeste 8 Sudoeste 0 1009.5 -1.5 80
2020-03-20 04:00:00 14.4 4 Sudoeste 10 Sur 0 1009.9 -1.4 77
2020-03-20 03:00:00 15.2 8 Sur 24 Este 0 1010.7 -0.9 73
2020-03-20 02:00:00 15.7 13 Sudeste 23 Sur 0 1011 -0.7 75
2020-03-20 01:00:00 15.6 10 Sudeste 21 Sur 0 1011.3 -0.5 86
2020-03-20 00:00:00 15.8 11 Sur 20 Sur 0 1011.6 0.2 83
2020-03-19 23:00:00 15.7 7 Sur 12 Sur 0 1011.7 0.6 85
2020-03-19 22:00:00 15.7 5 Sur 10 Sudeste 0 1011.8 0.9 83
2020-03-19 21:00:00 15.5 6 Sudeste 17 Sudeste 0 1011.4 0.2 82
2020-03-19 20:00:00 15.8 6 Sudeste 19 Este 0 1011.1 -0.4 77
2020-03-19 19:00:00 16.5 12 Sudeste 21 Sudeste 0 1010.9 -0.8 74
2020-03-19 18:00:00 17.4 14 Sudeste 28 Sudeste 0 1011.2 -0.8 68
2020-03-19 17:00:00 18.1 18 Sudeste 35 Sudeste 0 1011.5 -1.5 65
2020-03-19 16:00:00 18.7 19 Sudeste 33 Sudeste 0 1011.7 -2.1 67
2020-03-19 15:00:00 19.2 13 Sudeste 28 Sudeste 0 1012 -2 70
2020-03-19 14:00:00 18.1 14 Sudeste 24 Sur 0 1013 -1 70
2020-03-19 13:00:00 18 13 Sudeste 24 Sudeste 0 1013.8 -0.1 68
2020-03-19 12:00:00 18.1 13 Sur 23 Sur 0 1014 0.4 73
2020-03-19 11:00:00 17.4 12 Sur 20 Sur 0 1014 0.5 73
2020-03-19 10:00:00 16.8 11 Sur 20 Sur 0 1013.9 0.5 74
2020-03-19 09:00:00 16.2 8 Sudoeste 15 Sudoeste 0 1013.6 -0.1 76
2020-03-19 08:00:00 15.3 3 Noroeste 8 Oeste 0 1013.5 -0.5 82
2020-03-19 07:00:00 15.1 5 Oeste 10 Oeste 0 1013.4 -1.1 82
2020-03-19 06:00:00 15.2 5 Oeste 9 Sur 0 1013.7 -1.4 83
2020-03-19 05:00:00 15.2 7 Sudoeste 13 Sur 0 1014 -1.2 85
2020-03-19 04:00:00 15.2 8 Sur 13 Sur 0 1014.5 -0.8 85
2020-03-19 03:00:00 15.3 5 Sudoeste 13 Sur 0 1015.1 -0.7 83
2020-03-19 02:00:00 15.9 9 Sur 17 Sudeste 0 1015.2 -0.6 82
2020-03-19 01:00:00 16.1 11 Sudeste 19 Sur 0 1015.3 0 82
2020-03-19 00:00:00 16.3 7 Sur 14 Sudeste 0 1015.8 1.5 82
2020-03-18 23:00:00 16.3 5 Sur 20 Sudeste 0 1015.8 1.9 80
2020-03-18 22:00:00 16.1 7 Sudeste 16 Sudeste 0 1015.3 1.6 77
2020-03-18 21:00:00 16.3 9 Sudeste 25 Este 0 1014.3 0.7 73
2020-03-18 20:00:00 16.6 13 Sudeste 30 Sudeste 0 1013.9 0.1 71
2020-03-18 19:00:00 17.3 16 Sudeste 28 Sudeste 0 1013.7 -0.2 65
2020-03-18 18:00:00 18.4 14 Sudeste 28 Sudeste 0 1013.6 -0.7 64
2020-03-18 17:00:00 19 17 Sudeste 30 Sudeste 0 1013.8 -1.3 62
2020-03-18 16:00:00 19.3 16 Sudeste 32 Sudeste 0 1013.9 -1.7 61
2020-03-18 15:00:00 18.9 21 Sudeste 33 Sudeste 0 1014.3 -1.5 64
2020-03-18 14:00:00 19 22 Sudeste 37 Sudeste 0 1015.1 -0.3 64
2020-03-18 13:00:00 19.4 19 Sudeste 33 Sudeste 0 1015.6 0.8 64
2020-03-18 12:00:00 18.6 21 Sudeste 41 Sudeste 0 1015.8 1.4 67
2020-03-18 11:00:00 18.1 19 Sudeste 37 Sudeste 0 1015.4 1.2 68
2020-03-18 10:00:00 17.4 16 Sudeste 28 Sudeste 0 1014.8 1.1 71
2020-03-18 09:00:00 15.2 8 Sudeste 24 Sudeste 0 1014.4 1.3 83
2020-03-18 08:00:00 14.5 0 Calma 9 Norte 0 1014.2 1.7 82
2020-03-18 07:00:00 15 3 Noroeste 13 Noroeste 0 1013.7 0.7 79
2020-03-18 06:00:00 14.9 3 Oeste 13 Noroeste 0 1013.1 -0.5 77
2020-03-18 05:00:00 15.4 2 Noroeste 14 Este 0 1012.5 -1.8 73
2020-03-18 04:00:00 16.3 9 Este 31 Este 0 1013 -1.3 73
2020-03-18 03:00:00 16.5 18 Este 36 Sudeste 0 1013.6 -0.9 74
2020-03-18 02:00:00 14.6 0 Calma 10 Sudoeste 0 1014.3 0.3 86
2020-03-18 01:00:00 14.4 4 Noroeste 10 Norte 0 1014.3 0.1 86
2020-03-18 00:00:00 13.7 3 Noroeste 14 Noroeste 0 1014.5 0.3 86
2020-03-17 23:00:00 13.7 8 Noroeste 14 Noroeste 0 1014 -0.2 86
2020-03-17 22:00:00 14.4 5 Noroeste 11 Noroeste 0 1014.2 0.2 86
2020-03-17 21:00:00 14.5 3 Nordeste 12 Este 0 1014.2 0.3 85
2020-03-17 20:00:00 15.1 8 Este 19 Sudeste 0 1014.2 0.6 83
2020-03-17 19:00:00 15.2 9 Este 26 Sudeste 0 1014 0.2 82
2020-03-17 18:00:00 15.6 16 Sudeste 33 Este 0 1013.9 -0.3 82
2020-03-17 17:00:00 16 15 Este 34 Sudeste 0 1013.6 -1.1 68
2020-03-17 16:00:00 16.5 18 Sudeste 38 Sudeste 0 1013.8 -1.3 58
2020-03-17 15:00:00 17.4 24 Sudeste 40 Sudeste 0 1014.2 -1.1 50
2020-03-17 14:00:00 16.7 23 Sudeste 44 Este 0 1014.7 -0.4 54
2020-03-17 13:00:00 14.8 18 Sudeste 41 Sudeste 0 1015.1 0.4 73
2020-03-17 12:00:00 14.6 11 Este 20 Este 0 1015.3 1 59
2020-03-17 11:00:00 14 8 Oeste 17 Oeste 0 1015.1 1.9 61
2020-03-17 10:00:00 12.2 6 Noroeste 20 Oeste 0 1014.7 2.3 71
2020-03-17 09:00:00 10.7 10 Oeste 27 Oeste 0 1014.3 2.5 68
2020-03-17 08:00:00 10.4 0 Calma 6 Sudoeste 0 1013.2 1.6 68
2020-03-17 07:00:00 10.4 0 Calma 10 Oeste 0 1012.4 0.8 65
2020-03-17 06:00:00 10.2 5 Oeste 9 Sudoeste 0 1011.8 0 65
2020-03-17 05:00:00 10.4 0 Calma 8 Oeste 0 1011.6 0 61
2020-03-17 04:00:00 11.2 0 Calma 6 Nordeste 0 1011.6 0 55
2020-03-17 03:00:00 11.5 0 Calma 10 Oeste 0 1011.8 -0.1 55
2020-03-17 02:00:00 11.2 6 Oeste 10 Oeste 0 1011.6 0.2 52
2020-03-17 01:00:00 12.4 0 Calma 10 Noroeste 0 1011.6 0.8 45
2020-03-17 00:00:00 12.8 3 Norte 18 Noroeste 0 1011.9 1.9 43
2020-03-16 23:00:00 13.5 8 Noroeste 15 Oeste 0 1011.4 2.2 39
2020-03-16 22:00:00 14.3 4 Noroeste 18 Noroeste 0 1010.8 2.3 35
2020-03-16 21:00:00 14.5 3 Noroeste 12 Noroeste 0 1010 1.9 35
2020-03-16 20:00:00 14.8 5 Noroeste 29 Oeste 0 1009.2 1.2 33
2020-03-16 19:00:00 15.9 11 Noroeste 28 Noroeste 0 1008.5 0.5 30
2020-03-16 18:00:00 15.9 15 Noroeste 40 Oeste 0 1008.1 0 29
2020-03-16 17:00:00 17.5 18 Noroeste 39 Noroeste 0 1008 -0.6 28
2020-03-16 16:00:00 18 15 Oeste 35 Noroeste 0 1008 -0.9 27
2020-03-16 15:00:00 17.1 19 Oeste 39 Oeste 0 1008.1 -1.5 27
2020-03-16 14:00:00 17.1 15 Noroeste 34 Noroeste 0 1008.6 -1.2 28
2020-03-16 13:00:00 16.9 8 Noroeste 33 Noroeste 0 1008.9 -0.5 30
2020-03-16 12:00:00 15.2 19 Oeste 39 Oeste 0 1009.6 0.8 36
2020-03-16 11:00:00 12.9 16 Noroeste 36 Noroeste 0 1009.8 1.4 46
2020-03-16 10:00:00 12.2 21 Noroeste 38 Noroeste 0 1009.4 1.6 47
2020-03-16 09:00:00 12.6 21 Oeste 32 Oeste 0 1008.8 1.4 51
2020-03-16 08:00:00 13.2 11 Noroeste 26 Norte 0 1008.4 0.8 58
2020-03-16 07:00:00 13.1 9 Norte 24 Nordeste 0 1007.8 -0.3 80
2020-03-16 06:00:00 13.5 2 Noroeste 5 Noroeste 0 1007.4 -1.4 95
2020-03-16 05:00:00 13 0 Calma 9 Oeste 0 1007.6 -1.3 95
2020-03-16 04:00:00 13.2 0 Calma 4 Sudoeste 0 1008.1 -1.4 95
2020-03-16 03:00:00 13.2 0 Calma 3 Norte 0 1008.8 -0.9 95
2020-03-16 02:00:00 13.2 0 Calma 4 Noroeste 0 1008.9 -1.2 95
2020-03-16 01:00:00 13.3 0 Calma 6 Noroeste 0 1009.5 -0.8 95
2020-03-16 00:00:00 13.4 3 Oeste 6 Oeste 0 1009.7 0.1 94
2020-03-15 23:00:00 14.1 2 Sur 5 Nordeste 0 1010.1 0.8 92
2020-03-15 22:00:00 14.6 0 Calma 9 Sudeste 0 1010.3 0.6 91
2020-03-15 21:00:00 15.1 5 Sur 9 Sur 0 1009.6 -0.3 86
2020-03-15 20:00:00 15.9 4 Sur 10 Este 0 1009.3 -1.2 85
2020-03-15 19:00:00 16.5 7 Sur 10 Sur 0 1009.7 -0.9 80
2020-03-15 18:00:00 16.6 4 Sudeste 12 Sur 0 1009.9 -1.5 82
2020-03-15 17:00:00 16.3 9 Sur 17 Sur 0 1010.5 -2.1 86
2020-03-15 16:00:00 17.1 9 Sur 20 Sur 0 1010.6 -2.4 86
2020-03-15 15:00:00 16.5 8 Sudeste 22 Este 0 1011.4 -2.1 94
2020-03-15 14:00:00 15.4 11 Sudeste 22 Sudeste 0 1012.6 -0.9 93
2020-03-15 13:00:00 15.9 8 Este 17 Este 0 1013 -0.3 89
2020-03-15 12:00:00 16.1 10 Sudeste 17 Sudeste 0 1013.5 0.5 85
2020-03-15 11:00:00 15.8 6 Sudeste 12 Sudeste 0 1013.5 1.1 91
2020-03-15 10:00:00 15 2 Oeste 7 Oeste 0 1013.3 0.8 94
2020-03-15 09:00:00 14 0 Calma 8 Oeste 0 1013 0.4 94
2020-03-15 08:00:00 14.1 4 Sudoeste 6 Sudoeste 0 1012.4 -0.3 94
2020-03-15 07:00:00 13.9 5 Oeste 12 Oeste 0 1012.5 -1 94
2020-03-15 06:00:00 13.9 6 Oeste 10 Sudoeste 0 1012.6 -1.1 94
2020-03-15 05:00:00 14.8 3 Noroeste 6 Noroeste 0 1012.7 -1.3 94
2020-03-15 04:00:00 14.5 2 Oeste 8 Oeste 0 1013.5 -0.8 91
2020-03-15 03:00:00 14.6 3 Oeste 6 Oeste 0 1013.7 -0.7 88
2020-03-15 02:00:00 14.8 0 Calma 3 Sudoeste 0 1014 -0.2 88
2020-03-15 01:00:00 14.3 0 Calma 4 Oeste 0 1014.3 0.6 88
2020-03-15 00:00:00 14.7 0 Calma 7 Nordeste 0 1014.4 1.1 88
2020-03-14 23:00:00 14.8 4 Nordeste 9 Sudeste 0 1014.2 1.1 88
2020-03-14 22:00:00 15.1 6 Sudeste 8 Sudeste 0 1013.7 0.8 86
2020-03-14 21:00:00 15.4 6 Sudeste 12 Sudeste 0 1013.3 0.6 85
2020-03-14 20:00:00 16.1 9 Sudeste 16 Sudeste 0 1013.1 0.2 80
2020-03-14 19:00:00 17.6 10 Sudeste 15 Sudeste 0 1012.9 -0.3 70
2020-03-14 18:00:00 18.7 10 Sudeste 19 Sudeste 0 1012.7 -1.1 64
2020-03-14 17:00:00 19.2 10 Sudeste 21 Sudeste 0 1012.9 -1.4 62
2020-03-14 16:00:00 20.1 12 Sudeste 21 Sudeste 0 1013.2 -1.6 59
2020-03-14 15:00:00 20.3 12 Sudeste 24 Sur 0 1013.8 -1.3 58
2020-03-14 14:00:00 20.7 12 Sur 19 Sur 0 1014.3 -1.2 56
2020-03-14 13:00:00 20.2 9 Sudeste 18 Sudeste 0 1014.8 -0.3 58
2020-03-14 12:00:00 19.9 4 Sur 15 Sudeste 0 1015.1 0.5 62
2020-03-14 11:00:00 17.5 2 Este 12 Noroeste 0 1015.5 1.3 71
2020-03-14 10:00:00 16.4 0 Calma 7 Norte 0 1015.1 1.1 76
2020-03-14 09:00:00 15.4 0 Calma 6 Norte 0 1014.6 0.8 82
2020-03-14 08:00:00 14.5 4 Oeste 7 Oeste 0 1014.2 0.6 85
2020-03-14 07:00:00 14.8 5 Oeste 7 Sudoeste 0 1014 0.1 85
2020-03-14 06:00:00 15.2 2 Sudoeste 6 Oeste 0 1013.8 -0.2 86
2020-03-14 05:00:00 15.6 0 Calma 4 Sudeste 0 1013.6 -0.3 91
2020-03-14 04:00:00 15.4 0 Calma 10 Sudeste 0 1013.9 -0.1 92
2020-03-14 03:00:00 15.6 2 Sudeste 7 Norte 0 1014 -0.2 92
2020-03-14 02:00:00 15 0 Calma 7 Sudeste 0 1013.9 0.4 92
2020-03-14 01:00:00 15.4 5 Sur 12 Sudeste 0 1014 1 92
2020-03-14 00:00:00 15.8 0 Calma 5 Nordeste 0 1014.2 1.7 89
2020-03-13 23:00:00 16.2 4 Noroeste 8 Este 0 1013.5 1.6 82
2020-03-13 22:00:00 16.9 5 Sudeste 14 Sudeste 0 1013 1.8 80
2020-03-13 21:00:00 17.4 7 Sudeste 18 Sudeste 0 1012.5 1.7 73
2020-03-13 20:00:00 17.8 11 Sudeste 21 Sudeste 0 1011.9 1 72
2020-03-13 19:00:00 18.6 14 Sudeste 23 Sudeste 0 1011.2 0.5 65
2020-03-13 18:00:00 19.3 13 Sudeste 22 Este 0 1010.8 -0.5 70
2020-03-13 17:00:00 19.7 16 Sudeste 24 Sudeste 0 1010.9 -0.8 61
2020-03-13 16:00:00 21.2 12 Sudeste 23 Sudeste 0 1010.7 -0.7 58
2020-03-13 15:00:00 19.9 15 Sudeste 27 Sudeste 0 1011.3 0.4 67
2020-03-13 14:00:00 19.2 15 Sudeste 24 Sudeste 0 1011.7 0.8 64
2020-03-13 13:00:00 20.4 11 Sudeste 17 Sudeste 0 1011.4 0.1 61
2020-03-13 12:00:00 24.3 4 Sur 12 Sudeste 0 1010.9 -0.1 49
2020-03-13 11:00:00 22.7 7 Sudoeste 10 Sudoeste 0 1010.9 0.3 53
2020-03-13 10:00:00 19.8 3 Sudoeste 9 Norte 0 1011.3 0.9 64
2020-03-13 09:00:00 16.8 5 Norte 14 Noroeste 0 1011 0.6 68
2020-03-13 08:00:00 15.9 7 Noroeste 17 Noroeste 0 1010.6 0 70
2020-03-13 07:00:00 16.7 6 Oeste 15 Noroeste 0 1010.4 -0.6 65
2020-03-13 06:00:00 17 8 Noroeste 13 Noroeste 0 1010.4 -1.2 64
2020-03-13 05:00:00 16.9 6 Noroeste 15 Noroeste 0 1010.6 -1.1 64
2020-03-13 04:00:00 15.5 3 Oeste 8 Noroeste 0 1011 -1.2 61
2020-03-13 03:00:00 16.7 2 Norte 10 Noroeste 0 1011.6 -0.9 55
2020-03-13 02:00:00 16.9 5 Noroeste 9 Noroeste 0 1011.7 -0.4 56
2020-03-13 01:00:00 15.4 3 Noroeste 7 Oeste 0 1012.2 0.4 59
2020-03-13 00:00:00 16.1 2 Oeste 7 Oeste 0 1012.5 1 55
2020-03-12 23:00:00 17.2 0 Calma 6 Oeste 0 1012.1 0.9 50
2020-03-12 22:00:00 18.5 0 Calma 8 Este 0 1011.8 0.9 45
2020-03-12 21:00:00 19.3 4 Este 9 Sudeste 0 1011.5 0.5 42
2020-03-12 20:00:00 20.2 6 Sudeste 12 Sur 0 1011.2 -0.1 39
2020-03-12 19:00:00 22.5 8 Sur 13 Sudeste 0 1010.9 -0.7 36
2020-03-12 18:00:00 23.6 8 Sudeste 15 Sudeste 0 1011 -1.3 35
2020-03-12 17:00:00 24.7 10 Sudeste 18 Sudeste 0 1011.3 -2.1 34
2020-03-12 16:00:00 25.7 11 Sudeste 19 Sudeste 0 1011.6 -2.1 33
2020-03-12 15:00:00 26.7 11 Sudeste 18 Sudeste 0 1012.3 -2 32
2020-03-12 14:00:00 27 11 Sur 20 Sur 0 1013.4 -1.3 32
2020-03-12 13:00:00 26.9 4 Sur 13 Sudoeste 0 1013.7 -1.2 35
2020-03-12 12:00:00 25.1 5 Oeste 12 Oeste 0 1014.3 -0.3 39
2020-03-12 11:00:00 21.1 9 Oeste 13 Oeste 0 1014.7 0.1 50
2020-03-12 10:00:00 18.1 9 Oeste 17 Noroeste 0 1014.9 0.7 56
2020-03-12 09:00:00 15.7 8 Oeste 13 Norte 0 1014.6 0.1 59
2020-03-12 08:00:00 13.6 8 Oeste 15 Oeste 0 1014.6 -0.4 64
2020-03-12 07:00:00 15.2 10 Noroeste 16 Noroeste 0 1014.2 -1.3 59
2020-03-12 06:00:00 14.4 9 Oeste 16 Noroeste 0 1014.5 -1.5 64
2020-03-12 05:00:00 13 6 Noroeste 14 Oeste 0 1015 -1.2 72
2020-03-12 04:00:00 13.5 3 Norte 9 Oeste 0 1015.5 -0.6 68
2020-03-12 03:00:00 14.8 0 Calma 8 Noroeste 0 1016 -0.2 64
2020-03-12 02:00:00 15.1 0 Calma 9 Oeste 0 1016.2 0.5 61
2020-03-12 01:00:00 16.5 4 Nordeste 9 Nordeste 0 1016.1 0.8 56
2020-03-12 00:00:00 16.9 6 Nordeste 9 Nordeste 0 1016.2 1.2 55
2020-03-11 23:00:00 17.5 4 Este 6 Este 0 1015.7 0.8 51
2020-03-11 22:00:00 17.7 2 Oeste 6 Oeste 0 1015.3 0.8 50
2020-03-11 21:00:00 18.3 4 Oeste 6 Oeste 0 1015 0.2 47
2020-03-11 20:00:00 19.7 4 Sudoeste 10 Sudeste 0 1014.9 -0.2 44
2020-03-11 19:00:00 21.7 7 Este 14 Este 0 1014.5 -1.3 41
2020-03-11 18:00:00 22.4 8 Sudeste 13 Sudeste 0 1014.8 -1.9 39
2020-03-11 17:00:00 23.1 8 Sudeste 15 Sudeste 0 1015.1 -2.5 39
2020-03-11 16:00:00 23.7 7 Sudeste 15 Sudeste 0 1015.8 -2.6 39
2020-03-11 15:00:00 22.7 9 Sudeste 16 Sudeste 0 1016.7 -2.4 39
2020-03-11 14:00:00 22.6 9 Sudeste 14 Sudeste 0 1017.6 -1.4 39
2020-03-11 13:00:00 22.6 7 Sudeste 14 Sudeste 0 1018.4 -0.6 41
2020-03-11 12:00:00 21.5 5 Sudeste 11 Sudeste 0 1019.1 0.1 41
2020-03-11 11:00:00 20.5 6 Sudeste 9 Sur 0 1019 0.1 44
2020-03-11 10:00:00 17.5 4 Sudoeste 9 Oeste 0 1019 0.2 53
2020-03-11 09:00:00 14.6 3 Noroeste 13 Norte 0 1019 0.2 57
2020-03-11 08:00:00 12.8 9 Noroeste 16 Noroeste 0 1018.9 -0.4 61
2020-03-11 07:00:00 12.9 9 Oeste 16 Noroeste 0 1018.8 -1 61
2020-03-11 06:00:00 12.4 6 Oeste 14 Noroeste 0 1018.8 -1.4 61
2020-03-11 05:00:00 12.7 6 Noroeste 14 Noroeste 0 1019.3 -1.4 62
2020-03-11 04:00:00 11 4 Oeste 13 Oeste 0 1019.8 -1.1 67
2020-03-11 03:00:00 12.6 0 Calma 9 Oeste 0 1020.2 -1.2 59
2020-03-11 02:00:00 13.2 2 Oeste 9 Oeste 0 1020.7 -0.5 56
2020-03-11 01:00:00 14.3 2 Norte 11 Oeste 0 1020.9 -0.4 53
2020-03-11 00:00:00 13.7 8 Oeste 11 Oeste 0 1021.4 0.3 53
2020-03-10 23:00:00 15.5 0 Calma 4 Oeste 0 1021.2 0.1 49
2020-03-10 22:00:00 16.5 0 Calma 9 Este 0 1021.3 0.5 45
2020-03-10 21:00:00 17 5 Este 11 Sudeste 0 1021.1 0.4 45
2020-03-10 20:00:00 17.7 6 Sudeste 15 Sudeste 0 1021.1 0.3 42
2020-03-10 19:00:00 18.9 12 Sudeste 21 Sudeste 0 1020.8 -0.2 41
2020-03-10 18:00:00 19.5 13 Sudeste 24 Sudeste 0 1020.7 -0.4 41
2020-03-10 17:00:00 19.8 16 Este 25 Sudeste 0 1020.8 -0.3 41
2020-03-10 16:00:00 20.7 15 Sudeste 28 Sudeste 0 1021 -0.4 45
2020-03-10 15:00:00 21.5 18 Sudeste 38 Sudeste 0 1021.1 -0.1 41
2020-03-10 14:00:00 22.8 15 Este 28 Este 0 1021.1 0.5 35
2020-03-10 13:00:00 22.6 17 Este 33 Sudeste 0 1021.4 1.4 38
2020-03-10 12:00:00 22.9 15 Sudeste 25 Sudeste 0 1021.2 2 37
2020-03-10 11:00:00 21.8 0 Calma 6 Noroeste 0 1020.6 2.1 41
2020-03-10 10:00:00 18.5 5 Oeste 8 Noroeste 0 1020 1.9 53
2020-03-10 09:00:00 15.9 4 Noroeste 10 Norte 0 1019.2 1.6 56
2020-03-10 08:00:00 14.5 4 Norte 7 Noroeste 0 1018.5 1.3 65
2020-03-10 07:00:00 14.7 0 Calma 5 Nordeste 0 1018.1 1.1 68
2020-03-10 06:00:00 15.1 0 Calma 6 Este 0 1017.6 -0.1 68
2020-03-10 05:00:00 16.4 3 Sudeste 16 Noroeste 0 1017.2 -1 58
2020-03-10 04:00:00 18.8 11 Noroeste 26 Oeste 0 1017 -0.9 39
2020-03-10 03:00:00 18.7 10 Oeste 24 Noroeste 0 1017.7 -0.4 38
2020-03-10 02:00:00 19.5 13 Oeste 23 Oeste 0 1018.2 0.4 38
2020-03-10 01:00:00 19.1 6 Noroeste 20 Oeste 0 1017.9 0.4 39
2020-03-10 00:00:00 18.3 9 Oeste 21 Oeste 0 1018.1 1 39
2020-03-09 23:00:00 18.9 10 Oeste 27 Sudoeste 0 1017.8 1.2 38
2020-03-09 22:00:00 19.8 9 Oeste 22 Oeste 0 1017.5 1.8 36
2020-03-09 21:00:00 20.9 14 Oeste 27 Oeste 0 1017.1 1 35
2020-03-09 20:00:00 21.9 10 Noroeste 23 Noroeste 0 1016.6 0.4 32
2020-03-09 19:00:00 23.5 9 Noroeste 18 Noroeste 0 1015.7 -1 30
2020-03-09 18:00:00 21.8 6 Sudeste 15 Sudeste 0 1016.1 -0.4 36
2020-03-09 17:00:00 22.7 8 Sudeste 18 Sur 0 1016.2 -1.2 35
2020-03-09 16:00:00 24 9 Sudeste 30 Sudeste 0 1016.7 -1.5 32
2020-03-09 15:00:00 26.9 8 Noroeste 37 Oeste 0 1016.5 -2.8 23
2020-03-09 14:00:00 25.6 20 Oeste 35 Oeste 0 1017.4 -1.7 29
2020-03-09 13:00:00 24 10 Noroeste 27 Noroeste 0 1018.2 -0.4 30
2020-03-09 12:00:00 21.9 12 Noroeste 31 Oeste 0 1019.3 0.2 32
2020-03-09 11:00:00 20.1 13 Noroeste 35 Noroeste 0 1019.1 0.7 37
2020-03-09 10:00:00 18.7 15 Noroeste 33 Noroeste 0 1018.6 0.7 39
2020-03-09 09:00:00 15.9 17 Oeste 27 Sudoeste 0 1019.1 1.1 50
2020-03-09 08:00:00 15.8 8 Oeste 26 Oeste 0 1018.4 0 47
2020-03-09 07:00:00 16 16 Noroeste 28 Oeste 0 1017.9 -0.7 44
2020-03-09 06:00:00 15.5 10 Oeste 18 Oeste 0 1018 -1.1 44
2020-03-09 05:00:00 16.2 12 Oeste 23 Oeste 0 1018.4 -0.7 42
2020-03-09 04:00:00 16.8 14 Oeste 24 Oeste 0 1018.6 -0.4 41
2020-03-09 03:00:00 16.5 6 Norte 12 Noroeste 0 1019.1 -0.2 44
2020-03-09 02:00:00 16.8 5 Noroeste 12 Noroeste 0 1019.1 -0.3 46
2020-03-09 01:00:00 17.2 4 Noroeste 12 Noroeste 0 1019 -0.7 46
2020-03-09 00:00:00 16.8 6 Norte 14 Noroeste 0 1019.3 -0.5 52
2020-03-08 23:00:00 16.7 3 Noroeste 12 Noroeste 0 1019.4 0.3 53
2020-03-08 22:00:00 15.2 4 Noroeste 13 Oeste 0 1019.7 0.7 82
2020-03-08 21:00:00 15.7 5 Oeste 9 Oeste 0 1019.8 1.3 77
2020-03-08 20:00:00 16.1 5 Sudeste 16 Sudeste 0 1019.1 0.7 71
2020-03-08 19:00:00 16.6 11 Este 21 Este 0 1019 0.3 74
2020-03-08 18:00:00 17.8 12 Este 21 Este 0 1018.5 -0.7 65
2020-03-08 17:00:00 19.8 10 Este 19 Este 0 1018.4 -1.7 52
2020-03-08 16:00:00 20.9 12 Sudeste 19 Sudeste 0 1018.7 -2.4 40
2020-03-08 15:00:00 22.3 11 Sudeste 18 Sudeste 0 1019.2 -2.3 33
2020-03-08 14:00:00 22.9 12 Sur 19 Sudeste 0 1020.1 -1.6 36
2020-03-08 13:00:00 22 5 Sudoeste 14 Oeste 0 1021.1 -0.7 38
2020-03-08 12:00:00 19 11 Oeste 18 Oeste 0 1021.5 0.3 49
2020-03-08 11:00:00 16.7 9 Oeste 17 Oeste 0 1021.7 1.1 62
2020-03-08 10:00:00 13.4 6 Noroeste 13 Noroeste 0 1021.8 1.3 68
2020-03-08 09:00:00 10.7 5 Noroeste 13 Noroeste 0 1021.2 0.7 72
2020-03-08 08:00:00 9.8 7 Noroeste 14 Norte 0 1020.6 0.2 82
2020-03-08 07:00:00 7.7 5 Oeste 13 Oeste 0 1020.5 -0.1 88
2020-03-08 06:00:00 10.2 5 Noroeste 8 Noroeste 0 1020.5 -0.2 91
2020-03-08 05:00:00 10.4 4 Oeste 8 Oeste 0 1020.4 -0.1 91
2020-03-08 04:00:00 11.8 2 Nordeste 6 Oeste 0 1020.6 0.3 89
2020-03-08 03:00:00 12.4 0 Calma 7 Nordeste 0 1020.7 0.6 88
2020-03-08 02:00:00 12.6 6 Nordeste 12 Este 0 1020.5 0.3 80
2020-03-08 01:00:00 12.3 3 Oeste 10 Noroeste 0 1020.3 0.6 68
2020-03-08 00:00:00 13.5 4 Noroeste 8 Noroeste 0 1020.1 0.6 71
2020-03-07 23:00:00 13.7 3 Este 13 Norte 0 1020.2 1.2 76
2020-03-07 22:00:00 14.2 8 Noroeste 12 Oeste 0 1019.7 1.3 79
2020-03-07 21:00:00 14.7 0 Calma 4 Sur 0 1019.5 1.5 76
2020-03-07 20:00:00 15.3 4 Sudeste 12 Este 0 1019 1.1 71
2020-03-07 19:00:00 16.2 8 Este 14 Este 0 1018.4 0.1 64
2020-03-07 18:00:00 17.5 8 Sudeste 17 Sudeste 0 1018 -0.6 59
2020-03-07 17:00:00 18.7 9 Sudeste 20 Sudeste 0 1017.9 -1.1 55
2020-03-07 16:00:00 18.6 13 Sudeste 24 Sudeste 0 1018.3 -0.9 52
2020-03-07 15:00:00 19.7 15 Sudeste 25 Sudeste 0 1018.6 -1.4 50
2020-03-07 14:00:00 19.8 16 Sudeste 26 Sudeste 0 1019 -1.2 38
2020-03-07 13:00:00 21.7 8 Oeste 19 Sudoeste 0 1019.2 -1.2 38
2020-03-07 12:00:00 19.6 9 Oeste 21 Oeste 0 1020 0.3 41
2020-03-07 11:00:00 16.8 14 Oeste 19 Oeste 0 1020.2 1.1 47
2020-03-07 10:00:00 12.9 10 Oeste 22 Oeste 0 1020.4 1.8 53
2020-03-07 09:00:00 11.6 10 Oeste 21 Oeste 0 1019.7 1.6 56
2020-03-07 08:00:00 11.5 13 Oeste 22 Oeste 0 1019.1 0.6 53
2020-03-07 07:00:00 12 12 Oeste 26 Noroeste 0 1018.6 0.3 52
2020-03-07 06:00:00 12 13 Oeste 26 Oeste 0 1018.1 -0.4 51
2020-03-07 05:00:00 13 16 Oeste 31 Oeste 0 1018.5 -0.5 49
2020-03-07 04:00:00 13.9 9 Oeste 20 Norte 0 1018.3 -0.5 47
2020-03-07 03:00:00 14 9 Noroeste 21 Oeste 0 1018.5 0.3 47
2020-03-07 02:00:00 14.4 12 Oeste 24 Oeste 0 1019 1.5 46
2020-03-07 01:00:00 14.7 5 Noroeste 12 Norte 0 1018.8 2.1 45
2020-03-07 00:00:00 15.6 7 Noroeste 16 Noroeste 0 1018.2 3 44
2020-03-06 23:00:00 16.2 8 Noroeste 24 Oeste 0 1017.5 3.6 43
2020-03-06 22:00:00 16.7 12 Oeste 35 Noroeste 0 1016.7 3.1 43
2020-03-06 21:00:00 17.5 15 Noroeste 44 Oeste 0 1015.2 2.1 42
2020-03-06 20:00:00 17.9 16 Noroeste 50 Noroeste 0 1013.9 0.8 41
2020-03-06 19:00:00 18.8 15 Noroeste 45 Noroeste 0 1013.6 0.3 41
2020-03-06 18:00:00 19.2 18 Noroeste 44 Noroeste 0 1013.1 -1.5 41
2020-03-06 17:00:00 19.2 24 Noroeste 48 Oeste 0 1013.1 -2.5 42
2020-03-06 16:00:00 19.6 16 Noroeste 45 Noroeste 0 1013.3 -2.6 42
2020-03-06 15:00:00 18.7 17 Noroeste 46 Norte 0 1014.6 -2.2 45
2020-03-06 14:00:00 18.3 14 Noroeste 39 Oeste 0 1015.6 -1.5 48
2020-03-06 13:00:00 17.8 19 Noroeste 41 Noroeste 0 1015.9 -1.1 52
2020-03-06 12:00:00 16.9 14 Noroeste 44 Noroeste 0 1016.8 0.4 55
2020-03-06 11:00:00 15.5 13 Noroeste 31 Oeste 0 1017.1 1.6 58
2020-03-06 10:00:00 13.5 14 Noroeste 34 Noroeste 0 1017 1.9 62
2020-03-06 09:00:00 12.2 12 Noroeste 37 Noroeste 0 1016.4 1.9 65
2020-03-06 08:00:00 11.6 15 Noroeste 42 Noroeste 0 1015.5 0.9 65
2020-03-06 07:00:00 12 16 Noroeste 39 Noroeste 0 1015.1 0.2 63
2020-03-06 06:00:00 12.6 13 Noroeste 38 Noroeste 0 1014.5 -0.5 61
2020-03-06 05:00:00 13 12 Noroeste 37 Noroeste 0 1014.6 -0.5 59
2020-03-06 04:00:00 13.6 12 Noroeste 29 Oeste 0 1014.9 0.5 58
2020-03-06 03:00:00 14.4 13 Oeste 30 Noroeste 0 1015 0.7 56
2020-03-06 02:00:00 15.1 10 Noroeste 23 Oeste 0 1015.1 1.2 55
2020-03-06 01:00:00 15.8 9 Oeste 22 Oeste 0 1014.4 1.3 53
2020-03-06 00:00:00 16.8 8 Oeste 29 Oeste 0 1014.3 1.6 51
2020-03-05 23:00:00 16.9 13 Oeste 29 Oeste 0 1013.9 2 52
2020-03-05 22:00:00 17.1 13 Oeste 30 Oeste 0 1013.1 1.9 55
2020-03-05 21:00:00 17.5 17 Oeste 39 Noroeste 0 1012.7 1.3 56
2020-03-05 20:00:00 18.2 19 Oeste 39 Oeste 0 1011.9 0.7 55
2020-03-05 19:00:00 18.6 20 Oeste 34 Oeste 0 1011.2 0.4 56
2020-03-05 18:00:00 18.6 13 Oeste 40 Oeste 0 1011.4 0.9 64
2020-03-05 17:00:00 18.7 18 Noroeste 43 Oeste 0 1011.2 0.1 62
2020-03-05 16:00:00 20.2 21 Oeste 46 Oeste 0 1010.8 -0.8 56
2020-03-05 15:00:00 21.3 24 Oeste 45 Noroeste 0 1010.5 -1.4 53
2020-03-05 14:00:00 21.6 23 Oeste 46 Oeste 0 1011.1 -0.7 47
2020-03-05 13:00:00 20.7 16 Noroeste 35 Oeste 0 1011.6 -0.2 51
2020-03-05 12:00:00 21.5 10 Norte 34 Noroeste 0 1011.9 0.2 50
2020-03-05 11:00:00 20.1 10 Noroeste 34 Oeste 0 1011.8 0.5 53
2020-03-05 10:00:00 18.7 10 Noroeste 24 Noroeste 0 1011.8 0.4 58
2020-03-05 09:00:00 16.4 16 Noroeste 27 Noroeste 0 1011.7 0.3 62
2020-03-05 08:00:00 13.8 10 Oeste 18 Oeste 0 1011.3 -0.2 68
2020-03-05 07:00:00 14.2 8 Sudoeste 25 Oeste 0 1011.4 -0.7 67
2020-03-05 06:00:00 15.8 17 Oeste 30 Oeste 0 1011.4 -1.6 61
2020-03-05 05:00:00 16 15 Oeste 30 Noroeste 0 1011.5 -1.9 59
2020-03-05 04:00:00 16.3 16 Oeste 28 Noroeste 0 1012.1 -1.9 59
2020-03-05 03:00:00 16.4 14 Oeste 30 Oeste 0 1013 -1.3 61
2020-03-05 02:00:00 17.2 21 Oeste 34 Oeste 0 1013.4 -1.1 59
2020-03-05 01:00:00 17.5 17 Oeste 31 Noroeste 0 1014 -0.4 58
2020-03-05 00:00:00 18.2 13 Oeste 29 Oeste 0 1014.3 -0.1 56
2020-03-04 23:00:00 18.3 10 Oeste 24 Oeste 0 1014.5 0.4 56
2020-03-04 22:00:00 19 12 Oeste 27 Oeste 0 1014.4 0.8 53
2020-03-04 21:00:00 19.8 13 Oeste 33 Noroeste 0 1014.4 0.9 50
2020-03-04 20:00:00 20.5 17 Noroeste 36 Noroeste 0 1014.1 0.7 49
2020-03-04 19:00:00 21.8 11 Noroeste 31 Oeste 0 1013.6 -0.3 46
2020-03-04 18:00:00 22.8 14 Noroeste 36 Noroeste 0 1013.5 -1.1 42
2020-03-04 17:00:00 23.3 13 Noroeste 41 Noroeste 0 1013.4 -2.2 42
2020-03-04 16:00:00 23.4 14 Noroeste 39 Noroeste 0 1013.9 -2.4 42
2020-03-04 15:00:00 22.8 20 Noroeste 39 Noroeste 0 1014.6 -2.2 45
2020-03-04 14:00:00 22.7 19 Noroeste 40 Oeste 0 1015.6 -1.5 47
2020-03-04 13:00:00 21.8 18 Noroeste 40 Oeste 0 1016.3 -1.1 50
2020-03-04 12:00:00 21 15 Noroeste 32 Oeste 0 1016.8 -0.4 53
2020-03-04 11:00:00 20.2 6 Oeste 25 Noroeste 0 1017.1 0.2 62
2020-03-04 10:00:00 18.3 12 Oeste 28 Oeste 0 1017.4 0.6 71
2020-03-04 09:00:00 16.3 15 Oeste 28 Oeste 0 1017.2 0.3 79
2020-03-04 08:00:00 15.4 8 Oeste 25 Oeste 0 1016.9 -0.3 82
2020-03-04 07:00:00 15.4 12 Sudoeste 20 Oeste 0 1016.8 -0.8 79
2020-03-04 06:00:00 16.2 8 Noroeste 21 Norte 0 1016.9 -1.4 77
2020-03-04 05:00:00 16 5 Oeste 23 Noroeste 0 1017.2 -0.9 79
2020-03-04 04:00:00 15.5 3 Oeste 11 Oeste 0 1017.6 -0.8 79
2020-03-04 03:00:00 15.7 5 Sudeste 21 Noroeste 0 1018.3 -0.2 76
2020-03-04 02:00:00 16.5 10 Noroeste 23 Noroeste 0 1018.1 0 71
2020-03-04 01:00:00 17 9 Noroeste 19 Noroeste 0 1018.4 0.7 70
2020-03-04 00:00:00 17.2 9 Oeste 28 Noroeste 0 1018.5 1.1 67
2020-03-03 23:00:00 17.2 8 Noroeste 23 Noroeste 0 1018.1 1.2 64
2020-03-03 22:00:00 17.6 10 Noroeste 23 Noroeste 0 1017.7 1.6 62
2020-03-03 21:00:00 17.9 9 Noroeste 31 Noroeste 0 1017.4 1.6 61
2020-03-03 20:00:00 18.2 20 Oeste 36 Oeste 0 1016.9 1.5 56
2020-03-03 19:00:00 18.9 21 Oeste 41 Noroeste 0 1016.1 1 52
2020-03-03 18:00:00 20.2 20 Noroeste 45 Noroeste 0 1015.8 0.1 49
2020-03-03 17:00:00 20.3 29 Noroeste 50 Noroeste 0 1015.4 -1.3 46
2020-03-03 16:00:00 21.3 23 Oeste 43 Noroeste 0 1015.1 -2.7 38
2020-03-03 15:00:00 21.2 22 Noroeste 44 Oeste 0 1015.7 -2.9 35
2020-03-03 14:00:00 20.7 20 Oeste 37 Oeste 0 1016.7 -1.7 36
2020-03-03 13:00:00 19.1 13 Noroeste 36 Noroeste 0 1017.8 -0.2 44
2020-03-03 12:00:00 17.4 13 Noroeste 35 Norte 0 1018.6 0.9 50
2020-03-03 11:00:00 16.3 13 Norte 34 Norte 0 1018.4 1.3 55
2020-03-03 10:00:00 14.9 10 Norte 24 Norte 0 1018 1.2 59
2020-03-03 09:00:00 13.3 10 Noroeste 31 Noroeste 0 1017.7 1.4 62
2020-03-03 08:00:00 13.4 17 Oeste 27 Oeste 0 1017.1 0.9 61
2020-03-03 07:00:00 13.3 12 Oeste 29 Noroeste 0 1016.8 0.5 62
2020-03-03 06:00:00 13.6 9 Noroeste 26 Oeste 0 1016.3 -0.3 62
2020-03-03 05:00:00 13.9 12 Noroeste 24 Oeste 0 1016.2 -0.7 59
2020-03-03 04:00:00 13.9 13 Oeste 33 Oeste 0 1016.3 -0.8 59
2020-03-03 03:00:00 14.4 13 Oeste 30 Oeste 0 1016.6 -0.5 56
2020-03-03 02:00:00 15.2 13 Oeste 25 Oeste 0 1016.9 0.5 53
2020-03-03 01:00:00 15.6 4 Noroeste 25 Oeste 0 1017.1 1.9 55
2020-03-03 00:00:00 16.5 14 Noroeste 38 Oeste 0 1017.1 3.1 53
2020-03-02 23:00:00 17.1 17 Noroeste 30 Noroeste 0 1016.4 3.5 51
2020-03-02 22:00:00 17.5 13 Oeste 29 Noroeste 0 1015.2 3.7 49
2020-03-02 21:00:00 18.1 9 Noroeste 27 Oeste 0 1014 3.9 47
2020-03-02 20:00:00 19.2 14 Noroeste 37 Oeste 0 1012.9 3.6 43
2020-03-02 19:00:00 20.8 18 Oeste 42 Noroeste 0 1011.5 3.3 38
2020-03-02 18:00:00 21.8 23 Oeste 46 Oeste 0 1010.1 1.2 35
2020-03-02 17:00:00 22.2 25 Oeste 48 Oeste 0 1009.3 0.1 38
2020-03-02 16:00:00 24.3 19 Oeste 51 Oeste 0 1008.2 -1.5 33
2020-03-02 15:00:00 24.4 22 Oeste 43 Oeste 0 1008.9 -1.6 35
2020-03-02 14:00:00 24.5 21 Oeste 41 Noroeste 0 1009.2 -1.4 41
2020-03-02 13:00:00 22.6 22 Oeste 43 Noroeste 0 1009.7 -0.5 48
2020-03-02 12:00:00 21.2 5 Sudoeste 14 Oeste 0 1010.5 1.1 62
2020-03-02 11:00:00 17.8 5 Sudeste 12 Sudeste 0 1010.6 0.5 73
2020-03-02 10:00:00 16.5 6 Nordeste 14 Sudoeste 0 1010.2 0.6 80
2020-03-02 09:00:00 15.8 14 Sudoeste 25 Sudoeste 0 1009.4 0.1 77
2020-03-02 08:00:00 15.5 4 Oeste 8 Sudoeste 0 1010.1 0.8 76
2020-03-02 07:00:00 16.1 3 Sudeste 6 Sudeste 0 1009.6 -1 68
2020-03-02 06:00:00 16.9 0 Calma 15 Norte 0 1009.3 -1.9 64
2020-03-02 05:00:00 15.9 0 Calma 13 Oeste 0 1009.3 -1.8 67
2020-03-02 04:00:00 14.7 8 Oeste 17 Noroeste 0 1010.6 -0.8 71
2020-03-02 03:00:00 15.6 4 Noroeste 15 Oeste 0 1011.2 -0.7 68
2020-03-02 02:00:00 15.4 5 Oeste 9 Oeste 0 1011.1 -0.9 68
2020-03-02 01:00:00 16.1 0 Calma 8 Oeste 0 1011.4 -0.6 64
2020-03-02 00:00:00 17.1 0 Calma 5 Este 0 1011.9 -0.5 60
2020-03-01 23:00:00 17.7 0 Calma 4 Nordeste 0 1012 0 58
2020-03-01 22:00:00 18.5 0 Calma 8 Sudeste 0 1012 0.3 53
2020-03-01 21:00:00 18.6 3 Sur 14 Noroeste 0 1012.4 1 53
2020-03-01 20:00:00 19.7 4 Norte 18 Noroeste 0 1012 0.5 49
2020-03-01 19:00:00 21.2 5 Norte 17 Noroeste 0 1011.7 -0.4 43
2020-03-01 18:00:00 22.9 7 Noroeste 17 Noroeste 0 1011.4 -1.9 43
2020-03-01 17:00:00 23.2 4 Sur 17 Oeste 0 1011.5 -2.7 43
2020-03-01 16:00:00 21.9 4 Norte 23 Oeste 0 1012.1 -2.9 44
2020-03-01 15:00:00 20.9 11 Norte 30 Noroeste 0 1013.3 -1.5 45
2020-03-01 14:00:00 20.5 15 Noroeste 29 Noroeste 0 1014.2 -1 47
2020-03-01 13:00:00 19.4 9 Norte 30 Noroeste 0 1015 0.1 52
2020-03-01 12:00:00 18.7 14 Noroeste 37 Noroeste 0 1014.8 0.5 53
2020-03-01 11:00:00 18 10 Noroeste 34 Oeste 0 1015.2 1.2 56
2020-03-01 10:00:00 16.6 12 Noroeste 24 Noroeste 0 1014.9 1.8 62
2020-03-01 09:00:00 15.3 8 Noroeste 27 Oeste 0 1014.3 1.5 65
2020-03-01 08:00:00 15.6 10 Noroeste 22 Oeste 0 1014 1.4 65
2020-03-01 07:00:00 16 8 Noroeste 21 Noroeste 0 1013.1 0.6 65
2020-03-01 06:00:00 15.2 4 Norte 12 Norte 0 1012.8 0.4 74
2020-03-01 05:00:00 15.8 3 Sudoeste 17 Norte 0 1012.6 -0.3 71
2020-03-01 04:00:00 16.2 7 Norte 21 Nordeste 0 1012.5 -0.8 74
2020-03-01 03:00:00 16.1 0 Calma 5 Norte 0 1012.4 -0.7 71
2020-03-01 02:00:00 16.5 0 Calma 9 Sudoeste 0 1012.9 -0.1 70
2020-03-01 01:00:00 17.5 5 Sudoeste 10 Sudoeste 0 1013.3 0.4 67
2020-03-01 00:00:00 17.5 6 Oeste 13 Oeste 0 1013.1 0.9 65
2020-02-29 23:00:00 17.8 8 Oeste 24 Norte 0 1013 1.2 62
2020-02-29 22:00:00 18.3 10 Norte 31 Norte 0 1012.9 1.9 59
2020-02-29 21:00:00 18.5 13 Norte 39 Norte 0 1012.2 1.6 58
2020-02-29 20:00:00 18.8 14 Norte 33 Noroeste 0 1011.8 1.2 53
2020-02-29 19:00:00 20.3 12 Norte 28 Noroeste 0 1011 0.1 45
2020-02-29 18:00:00 21.9 10 Norte 28 Norte 0 1010.6 -0.8 42
2020-02-29 17:00:00 23.5 5 Noroeste 24 Noroeste 0 1010.6 -1.7 39
2020-02-29 16:00:00 23.6 9 Norte 26 Noroeste 0 1010.9 -1.9 39
2020-02-29 15:00:00 23.4 11 Noroeste 21 Noroeste 0 1011.4 -1.8 38
2020-02-29 14:00:00 23.3 6 Norte 23 Noroeste 0 1012.3 -1.6 38
2020-02-29 13:00:00 22.7 14 Oeste 24 Oeste 0 1012.8 -1 36
2020-02-29 12:00:00 20.3 13 Oeste 20 Oeste 0 1013.2 -0.3 41
2020-02-29 11:00:00 17.8 11 Oeste 19 Oeste 0 1013.9 0.5 45
2020-02-29 10:00:00 15.2 11 Oeste 19 Oeste 0 1013.8 0.2 51
2020-02-29 09:00:00 11.7 6 Noroeste 17 Noroeste 0 1013.5 0.1 57
2020-02-29 08:00:00 8.7 11 Oeste 14 Noroeste 0 1013.4 0.2 65
2020-02-29 07:00:00 9.9 9 Oeste 16 Oeste 0 1013.6 -0.3 62
2020-02-29 06:00:00 10.2 8 Oeste 13 Noroeste 0 1013.4 -0.8 61
2020-02-29 05:00:00 10 4 Noroeste 9 Noroeste 0 1013.2 -1.3 64
2020-02-29 04:00:00 10.2 5 Oeste 13 Sudoeste 0 1013.9 -0.7 65
2020-02-29 03:00:00 12.4 5 Noroeste 15 Noroeste 0 1014.2 -0.7 56
2020-02-29 02:00:00 13.2 5 Noroeste 13 Noroeste 0 1014.5 -0.3 56
2020-02-29 01:00:00 12.7 7 Oeste 11 Noroeste 0 1014.6 0.1 61
2020-02-29 00:00:00 13.6 2 Noroeste 8 Oeste 0 1014.9 0.4 70